Terminal Aerodrome Forecast
Issued by NWS Knoxville/Tri Cities, TN

Home | Current Version | Previous Version | Text Only | Print | Product List | Glossary On
Versions: 1 2 3 4 5 6 7 8 9 10 11 12 13 14 15 16 17 18 19 20 21 22 23 24 25 26 27 28 29 30 31 32 33 34 35 36 37 38 39 40 41 42 43 44
000
FTUS44 KMRX 031436 AAA
TAFCHA
TAF AMD
KCHA 031436Z 0315/0412 23006KT 6SM -SHRA BR BKN030 OVC050
      TEMPO 0315/0317 4SM TSRA BR SCT012 BKN020CB OVC035
     FM031700 22009KT P6SM VCTS SCT015CB BKN035
     FM032200 23012G25KT P6SM VCSH SCT020 BKN040
     FM040200 21006KT 5SM -SHRA BR BKN035 OVC070
     FM040600 21008KT 6SM -RA OVC025
     FM040800 22008KT 6SM BR OVC050=

USA.gov is the U.S. government's official web portal to all federal, state and local government web resources and services.